sensor_id;sensor_type;location;lat;lon;timestamp;pressure;altitude;pressure_sealevel;temperature;humidity
5872;BME280;2962;51.312;7.378;2022-09-16T00:01:14;96907.28;;;10.46;100.00
5872;BME280;2962;51.312;7.378;2022-09-16T00:03:40;96902.97;;;10.42;100.00
5872;BME280;2962;51.312;7.378;2022-09-16T00:06:05;96902.59;;;10.43;100.00
5872;BME280;2962;51.312;7.378;2022-09-16T00:08:31;96917.38;;;10.46;100.00
5872;BME280;2962;51.312;7.378;2022-09-16T00:11:00;96918.94;;;10.47;100.00
5872;BME280;2962;51.312;7.378;2022-09-16T00:13:26;96915.06;;;10.48;100.00
5872;BME280;2962;51.312;7.378;2022-09-16T00:15:51;96918.94;;;10.47;100.00
5872;BME280;2962;51.312;7.378;2022-09-16T00:18:16;96909.59;;;10.48;100.00
5872;BME280;2962;51.312;7.378;2022-09-16T00:20:49;96911.16;;;10.49;100.00
5872;BME280;2962;51.312;7.378;2022-09-16T00:23:15;96912.69;;;10.43;100.00
5872;BME280;2962;51.312;7.378;2022-09-16T00:25:41;96907.28;;;10.46;100.00
5872;BME280;2962;51.312;7.378;2022-09-16T00:28:07;96906.47;;;10.42;100.00
5872;BME280;2962;51.312;7.378;2022-09-16T00:30:32;96906.06;;;10.40;100.00
5872;BME280;2962;51.312;7.378;2022-09-16T00:32:58;96893.97;;;10.31;100.00
5872;BME280;2962;51.312;7.378;2022-09-16T00:35:23;96905.69;;;10.38;100.00
5872;BME280;2962;51.312;7.378;2022-09-16T00:37:48;96896.72;;;10.38;100.00
5872;BME280;2962;51.312;7.378;2022-09-16T00:40:13;96902.59;;;10.47;100.00
5872;BME280;2962;51.312;7.378;2022-09-16T00:42:39;96909.56;;;10.41;100.00
5872;BME280;2962;51.312;7.378;2022-09-16T00:47:56;96899.00;;;10.32;100.00
5872;BME280;2962;51.312;7.378;2022-09-16T00:50:45;96906.44;;;10.39;100.00
5872;BME280;2962;51.312;7.378;2022-09-16T00:53:41;96899.09;;;10.43;100.00
5872;BME280;2962;51.312;7.378;2022-09-16T00:56:05;96904.16;;;10.48;100.00
5872;BME280;2962;51.312;7.378;2022-09-16T00:58:40;96898.63;;;10.34;100.00
5872;BME280;2962;51.312;7.378;2022-09-16T01:01:07;96899.44;;;10.38;100.00
5872;BME280;2962;51.312;7.378;2022-09-16T01:03:36;96902.56;;;10.40;100.00
5872;BME280;2962;51.312;7.378;2022-09-16T01:06:03;96912.69;;;10.39;100.00
5872;BME280;2962;51.312;7.378;2022-09-16T01:08:29;96915.38;;;10.36;100.00
5872;BME280;2962;51.312;7.378;2022-09-16T01:10:54;96888.34;;;10.13;100.00
5872;BME280;2962;51.312;7.378;2022-09-16T01:13:20;96904.91;;;10.38;100.00
5872;BME280;2962;51.312;7.378;2022-09-16T01:15:55;96911.09;;;10.35;100.00
5872;BME280;2962;51.312;7.378;2022-09-16T01:21:06;96907.22;;;10.39;100.00
5872;BME280;2962;51.312;7.378;2022-09-16T01:29:51;96893.47;;;10.21;100.00
5872;BME280;2962;51.312;7.378;2022-09-16T01:41:08;96914.94;;;10.26;100.00
5872;BME280;2962;51.312;7.378;2022-09-16T01:43:44;96921.94;;;10.27;100.00
5872;BME280;2962;51.312;7.378;2022-09-16T01:48:57;96912.47;;;10.14;100.00
5872;BME280;2962;51.312;7.378;2022-09-16T01:51:33;96909.00;;;10.17;100.00
5872;BME280;2962;51.312;7.378;2022-09-16T01:54:06;96911.72;;;10.17;100.00
5872;BME280;2962;51.312;7.378;2022-09-16T01:56:45;96903.09;;;10.08;100.00
5872;BME280;2962;51.312;7.378;2022-09-16T01:59:20;96903.09;;;10.08;100.00
5872;BME280;2962;51.312;7.378;2022-09-16T02:02:10;96915.09;;;10.00;100.00
5872;BME280;2962;51.312;7.378;2022-09-16T02:04:44;96911.56;;;9.96;100.00
5872;BME280;2962;51.312;7.378;2022-09-16T02:07:15;96914.69;;;9.98;100.00
5872;BME280;2962;51.312;7.378;2022-09-16T02:09:50;96907.25;;;9.91;100.00
5872;BME280;2962;51.312;7.378;2022-09-16T02:12:22;96911.53;;;9.92;100.00
5872;BME280;2962;51.312;7.378;2022-09-16T02:14:51;96896.63;;;9.75;100.00
5872;BME280;2962;51.312;7.378;2022-09-16T02:17:20;96905.25;;;9.85;100.00
5872;BME280;2962;51.312;7.378;2022-09-16T02:20:07;96889.69;;;9.82;100.00
5872;BME280;2962;51.312;7.378;2022-09-16T02:22:41;96897.41;;;9.76;100.00
5872;BME280;2962;51.312;7.378;2022-09-16T02:25:09;96905.22;;;9.81;100.00
5872;BME280;2962;51.312;7.378;2022-09-16T02:27:37;96905.22;;;9.81;100.00
5872;BME280;2962;51.312;7.378;2022-09-16T02:30:06;96905.19;;;9.77;100.00
5872;BME280;2962;51.312;7.378;2022-09-16T02:32:35;96902.75;;;9.65;100.00
5872;BME280;2962;51.312;7.378;2022-09-16T02:35:04;96895.06;;;9.74;100.00
5872;BME280;2962;51.312;7.378;2022-09-16T02:37:57;96910.25;;;9.79;100.00
5872;BME280;2962;51.312;7.378;2022-09-16T02:40:31;96905.19;;;9.77;100.00
5872;BME280;2962;51.312;7.378;2022-09-16T02:42:58;96904.03;;;9.78;100.00
5872;BME280;2962;51.312;7.378;2022-09-16T02:45:30;96906.72;;;9.75;100.00
5872;BME280;2962;51.312;7.378;2022-09-16T02:48:24;96898.09;;;9.66;100.00
5872;BME280;2962;51.312;7.378;2022-09-16T02:51:03;96906.69;;;9.71;100.00
5872;BME280;2962;51.312;7.378;2022-09-16T02:54:02;96902.81;;;9.69;100.00
5872;BME280;2962;51.312;7.378;2022-09-16T02:56:36;96878.63;;;9.60;100.00
5872;BME280;2962;51.312;7.378;2022-09-16T02:59:05;96897.25;;;9.58;100.00
5872;BME280;2962;51.312;7.378;2022-09-16T03:01:36;96897.59;;;9.53;100.00
5872;BME280;2962;51.312;7.378;2022-09-16T03:04:02;96892.69;;;9.69;100.00
5872;BME280;2962;51.312;7.378;2022-09-16T03:06:28;96897.31;;;9.65;100.00
5872;BME280;2962;51.312;7.378;2022-09-16T03:08:58;96884.34;;;9.48;100.00
5872;BME280;2962;51.312;7.378;2022-09-16T03:23:47;96881.50;;;9.37;100.00
5872;BME280;2962;51.312;7.378;2022-09-16T03:26:01;96875.69;;;9.35;100.00
5872;BME280;2962;51.312;7.378;2022-09-16T03:28:40;96885.84;;;9.42;100.00
5872;BME280;2962;51.312;7.378;2022-09-16T03:31:09;96880.41;;;9.42;100.00
5872;BME280;2962;51.312;7.378;2022-09-16T03:33:44;96881.19;;;9.42;100.00
5872;BME280;2962;51.312;7.378;2022-09-16T03:36:15;96878.88;;;9.44;100.00
5872;BME280;2962;51.312;7.378;2022-09-16T03:38:43;96889.34;;;9.42;100.00
5872;BME280;2962;51.312;7.378;2022-09-16T03:41:09;96885.00;;;9.38;100.00
5872;BME280;2962;51.312;7.378;2022-09-16T03:43:35;96875.69;;;9.35;100.00
5872;BME280;2962;51.312;7.378;2022-09-16T03:46:01;96874.13;;;9.34;100.00
5872;BME280;2962;51.312;7.378;2022-09-16T03:48:26;96869.81;;;9.33;100.00
5872;BME280;2962;51.312;7.378;2022-09-16T03:50:52;96869.03;;;9.33;100.00
5872;BME280;2962;51.312;7.378;2022-09-16T03:53:18;96867.50;;;9.32;100.00
5872;BME280;2962;51.312;7.378;2022-09-16T03:55:44;96858.16;;;9.33;100.00
5872;BME280;2962;51.312;7.378;2022-09-16T03:58:09;96855.06;;;9.31;100.00
5872;BME280;2962;51.312;7.378;2022-09-16T04:00:34;96866.31;;;9.33;100.00
5872;BME280;2962;51.312;7.378;2022-09-16T04:03:01;96863.69;;;9.40;100.00
5872;BME280;2962;51.312;7.378;2022-09-16T04:05:26;96869.19;;;9.47;100.00
5872;BME280;2962;51.312;7.378;2022-09-16T04:07:52;96863.69;;;9.40;100.00
5872;BME280;2962;51.312;7.378;2022-09-16T04:10:18;96864.50;;;9.44;100.00
5872;BME280;2962;51.312;7.378;2022-09-16T04:12:43;96868.75;;;9.45;100.00
5872;BME280;2962;51.312;7.378;2022-09-16T04:15:09;96861.38;;;9.42;100.00
5872;BME280;2962;51.312;7.378;2022-09-16T04:17:34;96857.41;;;9.32;100.00
5872;BME280;2962;51.312;7.378;2022-09-16T04:20:00;96857.44;;;9.36;100.00
5872;BME280;2962;51.312;7.378;2022-09-16T04:22:29;96853.97;;;9.39;100.00
5872;BME280;2962;51.312;7.378;2022-09-16T04:24:55;96851.25;;;9.39;100.00
5872;BME280;2962;51.312;7.378;2022-09-16T04:27:20;96855.16;;;9.45;100.00
5872;BME280;2962;51.312;7.378;2022-09-16T04:29:45;96860.25;;;9.46;100.00
5872;BME280;2962;51.312;7.378;2022-09-16T04:32:11;96847.38;;;9.40;100.00
5872;BME280;2962;51.312;7.378;2022-09-16T04:34:36;96849.38;;;9.46;100.00
5872;BME280;2962;51.312;7.378;2022-09-16T04:37:01;96850.09;;;9.40;100.00
5872;BME280;2962;51.312;7.378;2022-09-16T04:39:28;96854.38;;;9.44;100.00
5872;BME280;2962;51.312;7.378;2022-09-16T04:41:53;96843.47;;;9.41;100.00
5872;BME280;2962;51.312;7.378;2022-09-16T04:44:18;96837.31;;;9.44;100.00
5872;BME280;2962;51.312;7.378;2022-09-16T04:46:44;96851.72;;;9.48;100.00
5872;BME280;2962;51.312;7.378;2022-09-16T04:49:09;96858.69;;;9.49;100.00
5872;BME280;2962;51.312;7.378;2022-09-16T04:51:37;96863.84;;;9.58;100.00
5872;BME280;2962;51.312;7.378;2022-09-16T04:54:02;96861.44;;;9.52;100.00
5872;BME280;2962;51.312;7.378;2022-09-16T04:56:30;96860.31;;;9.53;100.00
5872;BME280;2962;51.312;7.378;2022-09-16T04:58:58;96853.63;;;9.44;100.00
5872;BME280;2962;51.312;7.378;2022-09-16T05:01:42;96857.88;;;9.45;100.00
5872;BME280;2962;51.312;7.378;2022-09-16T05:04:09;96863.69;;;9.40;100.00
5872;BME280;2962;51.312;7.378;2022-09-16T05:06:38;96867.66;;;9.49;100.00
5872;BME280;2962;51.312;7.378;2022-09-16T05:09:05;96864.13;;;9.49;100.00
5872;BME280;2962;51.312;7.378;2022-09-16T05:11:34;96865.31;;;9.48;100.00
5872;BME280;2962;51.312;7.378;2022-09-16T05:14:03;96863.75;;;9.47;100.00
5872;BME280;2962;51.312;7.378;2022-09-16T05:16:29;96854.03;;;9.46;100.00
5872;BME280;2962;51.312;7.378;2022-09-16T05:18:56;96862.91;;;9.39;100.00
5872;BME280;2962;51.312;7.378;2022-09-16T05:21:23;96865.25;;;9.44;100.00
5872;BME280;2962;51.312;7.378;2022-09-16T05:23:49;96862.91;;;9.39;100.00
5872;BME280;2962;51.312;7.378;2022-09-16T05:26:20;96864.47;;;9.40;100.00
5872;BME280;2962;51.312;7.378;2022-09-16T05:28:45;96855.94;;;9.42;100.00
5872;BME280;2962;51.312;7.378;2022-09-16T05:31:23;96857.94;;;9.52;100.00
5872;BME280;2962;51.312;7.378;2022-09-16T05:36:22;96860.25;;;9.46;100.00
5872;BME280;2962;51.312;7.378;2022-09-16T05:38:47;96863.75;;;9.47;100.00
5872;BME280;2962;51.312;7.378;2022-09-16T05:41:13;96861.41;;;9.49;100.00
5872;BME280;2962;51.312;7.378;2022-09-16T05:43:39;96865.34;;;9.51;100.00
5872;BME280;2962;51.312;7.378;2022-09-16T05:46:05;96859.06;;;9.44;100.00
5872;BME280;2962;51.312;7.378;2022-09-16T05:48:31;96870.06;;;9.58;100.00
5872;BME280;2962;51.312;7.378;2022-09-16T05:51:02;96861.50;;;9.60;100.00
5872;BME280;2962;51.312;7.378;2022-09-16T05:53:29;96867.84;;;9.71;100.00
5872;BME280;2962;51.312;7.378;2022-09-16T05:58:28;96868.56;;;9.68;100.00
5872;BME280;2962;51.312;7.378;2022-09-16T06:01:02;96856.56;;;9.69;100.00
5872;BME280;2962;51.312;7.378;2022-09-16T06:03:27;96871.31;;;9.71;100.00
5872;BME280;2962;51.312;7.378;2022-09-16T06:08:31;96867.13;;;9.81;100.00
5872;BME280;2962;51.312;7.378;2022-09-16T06:11:05;96868.28;;;9.76;100.00
5872;BME280;2962;51.312;7.378;2022-09-16T06:13:31;96866.38;;;9.81;100.00
5872;BME280;2962;51.312;7.378;2022-09-16T06:15:57;96854.25;;;9.74;100.00
5872;BME280;2962;51.312;7.378;2022-09-16T06:18:24;96868.31;;;9.80;100.00
5872;BME280;2962;51.312;7.378;2022-09-16T06:20:51;96865.19;;;9.82;100.00
5872;BME280;2962;51.312;7.378;2022-09-16T06:23:17;96856.66;;;9.83;100.00
5872;BME280;2962;51.312;7.378;2022-09-16T06:25:43;96857.94;;;10.00;100.00
5872;BME280;2962;51.312;7.378;2022-09-16T06:28:08;96858.81;;;10.11;100.00
5872;BME280;2962;51.312;7.378;2022-09-16T06:30:38;96861.56;;;10.22;100.00
5872;BME280;2962;51.312;7.378;2022-09-16T06:33:04;96863.63;;;10.36;100.00
5872;BME280;2962;51.312;7.378;2022-09-16T06:35:29;96848.81;;;10.30;100.00
5872;BME280;2962;51.312;7.378;2022-09-16T06:37:55;96865.59;;;10.39;100.00
5872;BME280;2962;51.312;7.378;2022-09-16T06:40:20;96862.88;;;10.39;100.00
5872;BME280;2962;51.312;7.378;2022-09-16T06:42:46;96847.66;;;10.27;100.00
5872;BME280;2962;51.312;7.378;2022-09-16T06:45:11;96862.09;;;10.35;100.00
5872;BME280;2962;51.312;7.378;2022-09-16T06:47:36;96860.13;;;10.32;100.00
5872;BME280;2962;51.312;7.378;2022-09-16T06:50:03;96856.69;;;10.42;100.00
5872;BME280;2962;51.312;7.378;2022-09-16T06:52:29;96859.34;;;10.35;100.00
5872;BME280;2962;51.312;7.378;2022-09-16T06:54:55;96861.28;;;10.31;100.00
5872;BME280;2962;51.312;7.378;2022-09-16T06:57:21;96859.75;;;10.37;100.00
5872;BME280;2962;51.312;7.378;2022-09-16T06:59:51;96850.81;;;10.36;100.00
5872;BME280;2962;51.312;7.378;2022-09-16T07:02:17;96865.69;;;10.57;100.00
5872;BME280;2962;51.312;7.378;2022-09-16T07:04:44;96862.97;;;10.60;100.00
5872;BME280;2962;51.312;7.378;2022-09-16T07:07:09;96861.88;;;10.75;100.00
5872;BME280;2962;51.312;7.378;2022-09-16T07:09:34;96861.50;;;10.73;100.00
5872;BME280;2962;51.312;7.378;2022-09-16T07:12:00;96862.63;;;10.65;100.00
5872;BME280;2962;51.312;7.378;2022-09-16T07:14:26;96853.22;;;10.52;100.00
5872;BME280;2962;51.312;7.378;2022-09-16T07:16:52;96868.47;;;10.71;100.00
5872;BME280;2962;51.312;7.378;2022-09-16T07:19:18;96854.84;;;10.67;100.00
5872;BME280;2962;51.312;7.378;2022-09-16T07:21:44;96870.03;;;10.65;100.00
5872;BME280;2962;51.312;7.378;2022-09-16T07:24:13;96864.91;;;10.56;100.00
5872;BME280;2962;51.312;7.378;2022-09-16T07:26:40;96872.72;;;10.61;100.00
5872;BME280;2962;51.312;7.378;2022-09-16T07:29:12;96868.84;;;10.66;100.00
5872;BME280;2962;51.312;7.378;2022-09-16T07:31:39;96871.19;;;10.67;100.00
5872;BME280;2962;51.312;7.378;2022-09-16T07:34:06;96881.28;;;10.63;100.00
5872;BME280;2962;51.312;7.378;2022-09-16T07:36:38;96886.34;;;10.68;100.00
5872;BME280;2962;51.312;7.378;2022-09-16T07:39:04;96884.41;;;10.65;100.00
5872;BME280;2962;51.312;7.378;2022-09-16T07:41:33;96886.31;;;10.58;100.00
5872;BME280;2962;51.312;7.378;2022-09-16T07:43:59;96880.09;;;10.61;100.00
5872;BME280;2962;51.312;7.378;2022-09-16T07:46:27;96882.84;;;10.68;100.00
5872;BME280;2962;51.312;7.378;2022-09-16T07:48:53;96888.81;;;10.88;100.00
5872;BME280;2962;51.312;7.378;2022-09-16T07:51:22;96884.94;;;10.99;100.00
5872;BME280;2962;51.312;7.378;2022-09-16T07:53:56;96888.78;;;10.91;100.00
5872;BME280;2962;51.312;7.378;2022-09-16T07:56:24;96891.94;;;10.97;100.00
5872;BME280;2962;51.312;7.378;2022-09-16T07:58:51;96895.00;;;10.85;100.00
5872;BME280;2962;51.312;7.378;2022-09-16T08:01:17;96882.13;;;10.78;100.00
5872;BME280;2962;51.312;7.378;2022-09-16T08:03:44;96885.69;;;10.93;100.00
5872;BME280;2962;51.312;7.378;2022-09-16T08:06:13;96885.81;;;11.36;100.00
5872;BME280;2962;51.312;7.378;2022-09-16T08:08:40;96888.22;;;11.80;100.00
5872;BME280;2962;51.312;7.378;2022-09-16T08:11:05;96881.97;;;11.87;100.00
5872;BME280;2962;51.312;7.378;2022-09-16T08:13:32;96884.31;;;11.99;100.00
5872;BME280;2962;51.312;7.378;2022-09-16T08:16:00;96879.25;;;11.97;100.00
5872;BME280;2962;51.312;7.378;2022-09-16T08:18:26;96881.56;;;12.20;100.00
5872;BME280;2962;51.312;7.378;2022-09-16T08:20:52;96853.88;;;11.83;100.00
5872;BME280;2962;51.312;7.378;2022-09-16T08:23:17;96878.84;;;11.78;100.00
5872;BME280;2962;51.312;7.378;2022-09-16T08:25:43;96881.97;;;11.72;100.00
5872;BME280;2962;51.312;7.378;2022-09-16T08:28:13;96883.53;;;12.09;100.00
5872;BME280;2962;51.312;7.378;2022-09-16T08:30:39;96874.97;;;11.96;100.00
5872;BME280;2962;51.312;7.378;2022-09-16T08:33:04;96880.81;;;11.81;100.00
5872;BME280;2962;51.312;7.378;2022-09-16T08:35:29;96879.63;;;11.67;100.00
5872;BME280;2962;51.312;7.378;2022-09-16T08:37:55;96892.53;;;11.88;100.00
5872;BME280;2962;51.312;7.378;2022-09-16T08:40:22;96894.47;;;12.02;100.00
5872;BME280;2962;51.312;7.378;2022-09-16T08:43:03;96890.56;;;11.85;100.00
5872;BME280;2962;51.312;7.378;2022-09-16T08:45:57;96900.66;;;11.67;100.00
5872;BME280;2962;51.312;7.378;2022-09-16T08:48:45;96891.69;;;11.63;100.00
5872;BME280;2962;51.312;7.378;2022-09-16T08:51:16;96892.47;;;11.63;100.00
5872;BME280;2962;51.312;7.378;2022-09-16T08:54:05;96885.50;;;11.98;100.00
5872;BME280;2962;51.312;7.378;2022-09-16T08:56:34;96883.06;;;12.57;100.00
5872;BME280;2962;51.312;7.378;2022-09-16T08:59:02;96880.34;;;12.54;100.00
5872;BME280;2962;51.312;7.378;2022-09-16T09:01:48;96877.97;;;12.66;100.00
5872;BME280;2962;51.312;7.378;2022-09-16T09:04:17;96868.06;;;13.01;100.00
5872;BME280;2962;51.312;7.378;2022-09-16T09:07:22;96881.38;;;12.95;100.00
5872;BME280;2962;51.312;7.378;2022-09-16T09:10:13;96885.84;;;12.36;100.00
5872;BME280;2962;51.312;7.378;2022-09-16T09:13:00;96884.59;;;12.65;100.00
5872;BME280;2962;51.312;7.378;2022-09-16T09:15:54;96879.75;;;13.05;100.00
5872;BME280;2962;51.312;7.378;2022-09-16T09:18:47;96891.09;;;13.07;100.00
5872;BME280;2962;51.312;7.378;2022-09-16T09:21:24;96889.59;;;12.88;100.00
5872;BME280;2962;51.312;7.378;2022-09-16T09:23:54;96885.31;;;12.84;100.00
5872;BME280;2962;51.312;7.378;2022-09-16T09:26:55;96888.13;;;12.59;100.00
5872;BME280;2962;51.312;7.378;2022-09-16T09:32:13;96887.91;;;13.19;100.00
5872;BME280;2962;51.312;7.378;2022-09-16T09:37:53;96874.59;;;13.18;100.00
5872;BME280;2962;51.312;7.378;2022-09-16T09:43:17;96857.66;;;13.44;100.00
5872;BME280;2962;51.312;7.378;2022-09-16T09:45:58;96869.38;;;13.49;100.00
5872;BME280;2962;51.312;7.378;2022-09-16T09:50:52;96867.66;;;13.03;100.00
5872;BME280;2962;51.312;7.378;2022-09-16T09:53:32;96874.31;;;12.94;100.00
5872;BME280;2962;51.312;7.378;2022-09-16T09:58:37;96876.28;;;12.94;100.00
5872;BME280;2962;51.312;7.378;2022-09-16T10:01:05;96863.09;;;12.75;100.00
5872;BME280;2962;51.312;7.378;2022-09-16T10:03:30;96876.72;;;12.85;100.00
5872;BME280;2962;51.312;7.378;2022-09-16T10:05:56;96886.50;;;12.79;100.00
5872;BME280;2962;51.312;7.378;2022-09-16T10:08:41;96876.09;;;12.35;100.00
5872;BME280;2962;51.312;7.378;2022-09-16T10:11:26;96880.81;;;12.16;100.00
5872;BME280;2962;51.312;7.378;2022-09-16T10:13:54;96882.31;;;12.42;100.00
5872;BME280;2962;51.312;7.378;2022-09-16T10:16:21;96866.13;;;12.94;100.00
5872;BME280;2962;51.312;7.378;2022-09-16T10:19:06;96871.56;;;13.02;100.00
5872;BME280;2962;51.312;7.378;2022-09-16T10:21:45;96875.06;;;13.02;100.00
5872;BME280;2962;51.312;7.378;2022-09-16T10:26:54;96862.69;;;13.57;100.00
5872;BME280;2962;51.312;7.378;2022-09-16T10:29:20;96875.19;;;13.58;100.00
5872;BME280;2962;51.312;7.378;2022-09-16T10:31:45;96875.66;;;13.98;100.00
5872;BME280;2962;51.312;7.378;2022-09-16T10:34:30;96867.09;;;14.33;100.00
5872;BME280;2962;51.312;7.378;2022-09-16T10:39:34;96840.84;;;14.36;100.00
5872;BME280;2962;51.312;7.378;2022-09-16T10:42:01;96849.38;;;14.07;100.00
5872;BME280;2962;51.312;7.378;2022-09-16T10:44:29;96856.56;;;13.87;100.00
5872;BME280;2962;51.312;7.378;2022-09-16T10:46:58;96851.81;;;13.95;100.00
5872;BME280;2962;51.312;7.378;2022-09-16T10:49:36;96848.72;;;15.02;100.00
5872;BME280;2962;51.312;7.378;2022-09-16T10:52:20;96862.41;;;15.33;100.00
5872;BME280;2962;51.312;7.378;2022-09-16T10:54:46;96884.41;;;15.56;100.00
5872;BME280;2962;51.312;7.378;2022-09-16T11:05:17;96849.84;;;14.74;100.00
5872;BME280;2962;51.312;7.378;2022-09-16T11:14:03;96841.75;;;16.26;100.00
5872;BME280;2962;51.312;7.378;2022-09-16T11:16:42;96845.69;;;16.88;100.00
5872;BME280;2962;51.312;7.378;2022-09-16T11:19:33;96836.72;;;16.84;100.00
5872;BME280;2962;51.312;7.378;2022-09-16T11:27:49;96852.63;;;14.33;100.00
5872;BME280;2962;51.312;7.378;2022-09-16T11:30:17;96839.41;;;14.24;100.00
5872;BME280;2962;51.312;7.378;2022-09-16T11:40:55;96851.91;;;15.55;100.00
5872;BME280;2962;51.312;7.378;2022-09-16T11:51:49;96832.06;;;15.71;100.00
5872;BME280;2962;51.312;7.378;2022-09-16T11:57:07;96846.53;;;15.98;100.00
5872;BME280;2962;51.312;7.378;2022-09-16T11:59:40;96840.91;;;15.82;100.00
5872;BME280;2962;51.312;7.378;2022-09-16T12:02:29;96845.09;;;14.78;100.00
5872;BME280;2962;51.312;7.378;2022-09-16T12:07:31;96846.00;;;13.89;100.00
5872;BME280;2962;51.312;7.378;2022-09-16T12:10:15;96838.19;;;13.35;100.00
5872;BME280;2962;51.312;7.378;2022-09-16T12:12:45;96838.69;;;13.12;100.00
5872;BME280;2962;51.312;7.378;2022-09-16T12:15:23;96849.25;;;13.10;100.00
5872;BME280;2962;51.312;7.378;2022-09-16T12:17:59;96853.16;;;13.09;100.00
5872;BME280;2962;51.312;7.378;2022-09-16T12:20:33;96857.47;;;13.73;100.00
5872;BME280;2962;51.312;7.378;2022-09-16T12:23:05;96848.28;;;15.07;100.00
5872;BME280;2962;51.312;7.378;2022-09-16T12:25:38;96857.78;;;15.84;100.00
5872;BME280;2962;51.312;7.378;2022-09-16T12:33:52;96877.34;;;13.84;100.00
5872;BME280;2962;51.312;7.378;2022-09-16T12:36:28;96884.31;;;13.92;100.00
5872;BME280;2962;51.312;7.378;2022-09-16T12:38:58;96873.97;;;14.14;100.00
5872;BME280;2962;51.312;7.378;2022-09-16T12:44:00;96880.28;;;14.83;100.00
5872;BME280;2962;51.312;7.378;2022-09-16T12:52:44;96860.00;;;16.36;100.00
5872;BME280;2962;51.312;7.378;2022-09-16T13:03:37;96866.00;;;14.99;100.00
5872;BME280;2962;51.312;7.378;2022-09-16T13:06:17;96867.09;;;14.33;100.00
5872;BME280;2962;51.312;7.378;2022-09-16T13:08:44;96870.47;;;14.48;100.00
5872;BME280;2962;51.312;7.378;2022-09-16T13:11:19;96866.78;;;15.84;100.00
5872;BME280;2962;51.312;7.378;2022-09-16T13:13:48;96869.03;;;16.80;100.00
5872;BME280;2962;51.312;7.378;2022-09-16T13:16:28;96862.03;;;18.17;100.00
5872;BME280;2962;51.312;7.378;2022-09-16T13:19:23;96871.94;;;18.30;100.00
5872;BME280;2962;51.312;7.378;2022-09-16T13:21:55;96858.78;;;17.00;100.00
5872;BME280;2962;51.312;7.378;2022-09-16T13:24:53;96876.19;;;15.56;100.00
5872;BME280;2962;51.312;7.378;2022-09-16T13:27:27;96875.06;;;14.96;100.00
5872;BME280;2962;51.312;7.378;2022-09-16T13:37:52;96869.75;;;14.40;100.00
5872;BME280;2962;51.312;7.378;2022-09-16T13:42:47;96879.50;;;13.55;100.00
5872;BME280;2962;51.312;7.378;2022-09-16T13:45:36;96878.03;;;13.36;100.00
5872;BME280;2962;51.312;7.378;2022-09-16T13:48:23;96880.19;;;12.93;100.00
5872;BME280;2962;51.312;7.378;2022-09-16T13:50:56;96883.06;;;12.54;100.00
5872;BME280;2962;51.312;7.378;2022-09-16T13:53:29;96895.63;;;12.26;100.00
5872;BME280;2962;51.312;7.378;2022-09-16T13:56:09;96904.56;;;11.62;100.00
5872;BME280;2962;51.312;7.378;2022-09-16T13:59:19;96911.91;;;11.22;100.00
5872;BME280;2962;51.312;7.378;2022-09-16T14:07:27;96923.91;;;10.31;100.00
5872;BME280;2962;51.312;7.378;2022-09-16T14:10:09;96928.25;;;9.94;100.00
5872;BME280;2962;51.312;7.378;2022-09-16T14:12:58;96931.44;;;9.59;100.00
5872;BME280;2962;51.312;7.378;2022-09-16T14:15:28;96941.81;;;9.46;100.00
5872;BME280;2962;51.312;7.378;2022-09-16T14:18:00;96945.50;;;9.27;100.00
5872;BME280;2962;51.312;7.378;2022-09-16T14:20:27;96930.16;;;9.09;100.00
5872;BME280;2962;51.312;7.378;2022-09-16T14:23:13;96941.06;;;9.12;100.00
5872;BME280;2962;51.312;7.378;2022-09-16T14:25:39;96946.41;;;9.05;100.00
5872;BME280;2962;51.312;7.378;2022-09-16T14:28:08;96940.78;;;8.91;100.00
5872;BME280;2962;51.312;7.378;2022-09-16T14:30:34;96917.84;;;8.85;100.00
5872;BME280;2962;51.312;7.378;2022-09-16T14:33:00;96942.13;;;9.04;100.00
5872;BME280;2962;51.312;7.378;2022-09-16T14:35:27;96930.53;;;9.07;100.00
5872;BME280;2962;51.312;7.378;2022-09-16T14:38:02;96941.19;;;9.23;100.00
5872;BME280;2962;51.312;7.378;2022-09-16T14:40:28;96941.31;;;9.37;100.00
5872;BME280;2962;51.312;7.378;2022-09-16T14:43:00;96923.97;;;9.49;100.00
5872;BME280;2962;51.312;7.378;2022-09-16T14:45:28;96934.91;;;9.97;100.00
5872;BME280;2962;51.312;7.378;2022-09-16T14:47:56;96925.59;;;11.47;100.00
5872;BME280;2962;51.312;7.378;2022-09-16T14:50:29;96916.50;;;12.97;100.00
5872;BME280;2962;51.312;7.378;2022-09-16T14:53:00;96915.69;;;14.71;100.00
5872;BME280;2962;51.312;7.378;2022-09-16T14:55:31;96886.72;;;16.35;100.00
5872;BME280;2962;51.312;7.378;2022-09-16T14:57:58;96874.00;;;17.25;100.00
5872;BME280;2962;51.312;7.378;2022-09-16T15:00:28;96861.59;;;18.80;100.00
5872;BME280;2962;51.312;7.378;2022-09-16T15:03:00;96864.91;;;19.30;100.00
5872;BME280;2962;51.312;7.378;2022-09-16T15:05:33;96865.47;;;20.36;100.00
5872;BME280;2962;51.312;7.378;2022-09-16T15:08:28;96862.00;;;20.57;100.00
5872;BME280;2962;51.312;7.378;2022-09-16T15:10:58;96866.25;;;21.15;100.00
5872;BME280;2962;51.312;7.378;2022-09-16T15:13:34;96858.59;;;21.90;100.00
5872;BME280;2962;51.312;7.378;2022-09-16T15:16:07;96862.41;;;22.15;100.00
5872;BME280;2962;51.312;7.378;2022-09-16T15:18:36;96866.56;;;21.79;100.00
5872;BME280;2962;51.312;7.378;2022-09-16T15:21:11;96856.72;;;22.55;100.00
5872;BME280;2962;51.312;7.378;2022-09-16T15:23:49;96850.19;;;23.32;100.00
5872;BME280;2962;51.312;7.378;2022-09-16T15:26:21;96845.91;;;23.22;100.00
5872;BME280;2962;51.312;7.378;2022-09-16T15:29:00;96855.03;;;22.85;100.00
5872;BME280;2962;51.312;7.378;2022-09-16T15:31:36;96859.25;;;20.79;100.00
5872;BME280;2962;51.312;7.378;2022-09-16T15:34:23;96844.88;;;18.42;100.00
5872;BME280;2962;51.312;7.378;2022-09-16T15:36:51;96851.56;;;17.95;100.00
5872;BME280;2962;51.312;7.378;2022-09-16T15:39:28;96852.56;;;18.18;100.00
5872;BME280;2962;51.312;7.378;2022-09-16T15:44:42;96856.19;;;17.82;100.00
5872;BME280;2962;51.312;7.378;2022-09-16T15:47:37;96860.06;;;18.17;100.00
5872;BME280;2962;51.312;7.378;2022-09-16T15:50:13;96856.22;;;19.02;100.00
5872;BME280;2962;51.312;7.378;2022-09-16T15:55:36;96864.19;;;19.13;100.00
5872;BME280;2962;51.312;7.378;2022-09-16T15:58:11;96869.19;;;18.30;100.00
5872;BME280;2962;51.312;7.378;2022-09-16T16:01:01;96860.81;;;18.63;100.00
5872;BME280;2962;51.312;7.378;2022-09-16T16:03:32;96859.56;;;18.51;100.00
5872;BME280;2962;51.312;7.378;2022-09-16T16:06:00;96851.28;;;18.51;100.00